Time;durP1;ratioP1;P1;durP2;ratioP2;P2;SDS_P1;SDS_P2;PMS_P1;PMS_P2;Temp;Humidity;BMP_temperature;BMP_pressure;BME280_temperature;BME280_humidity;BME280_pressure;Samples;Min_cycle;Max_cycle;Signal;HPM_P1;HPM_P2
2020/12/21 00:02:15;;;;;;;33.40;24.90;;;8.80;76.60;;;;;;4592323;28;20448;-78
2020/12/21 00:04:31;;;;;;;32.37;24.73;;;;;;;;;;4592855;28;20530;-81
2020/12/21 00:06:51;;;;;;;33.50;25.07;;;;;;;;;;4590743;28;20819;-79
2020/12/21 00:09:07;;;;;;;29.50;23.47;;;;;;;;;;4592176;28;20934;-77
2020/12/21 00:11:31;;;;;;;28.67;22.57;;;;;;;;;;4591940;28;20881;-78
2020/12/21 00:13:48;;;;;;;29.33;23.83;;;8.40;71.80;;;;;;4592998;28;20472;-77
2020/12/21 00:16:04;;;;;;;30.37;23.97;;;;;;;;;;4591347;28;20865;-77
2020/12/21 00:18:20;;;;;;;31.43;23.90;;;;;;;;;;4592896;28;21010;-78
2020/12/21 00:20:36;;;;;;;32.53;24.93;;;7.70;76.60;;;;;;4592383;28;20444;-78
2020/12/21 00:22:53;;;;;;;32.10;25.07;;;;;;;;;;4590980;28;20563;-79
2020/12/21 00:25:09;;;;;;;32.37;25.20;;;;;;;;;;4592237;28;20472;-78
2020/12/21 00:27:24;;;;;;;31.87;25.93;;;8.50;76.70;;;;;;4593022;28;20459;-75
2020/12/21 00:29:41;;;;;;;28.53;24.73;;;;;;;;;;4592401;28;20522;-76
2020/12/21 00:31:57;;;;;;;35.37;26.50;;;;;;;;;;4592541;28;20946;-77
2020/12/21 00:34:13;;;;;;;33.87;26.07;;;;;;;;;;4591019;28;20541;-77
2020/12/21 00:36:30;;;;;;;32.43;25.33;;;;;;;;;;4591334;28;20439;-80
2020/12/21 00:38:46;;;;;;;33.77;25.57;;;;;;;;;;4592200;28;20441;-79
2020/12/21 00:41:09;;;;;;;31.67;25.90;;;7.30;71.30;;;;;;4589919;28;20478;-77
2020/12/21 00:43:25;;;;;;;33.67;27.23;;;;;;;;;;4589438;28;20437;-77
2020/12/21 00:45:44;;;;;;;30.40;25.20;;;;;;;;;;4591001;28;20930;-76
2020/12/21 00:48:00;;;;;;;33.47;26.43;;;;;;;;;;4591140;28;20436;-76
2020/12/21 00:50:17;;;;;;;32.70;26.27;;;;;;;;;;4567297;28;20450;-76
2020/12/21 00:52:33;;;;;;;32.90;26.20;;;;;;;;;;4560342;28;20442;-77
2020/12/21 00:54:48;;;;;;;34.47;26.77;;;6.10;76.20;;;;;;4593781;28;20488;-76
2020/12/21 00:57:04;;;;;;;33.17;26.87;;;;;;;;;;4588139;28;20486;-76
2020/12/21 00:59:19;;;;;;;36.17;29.00;;;8.20;77.40;;;;;;4577254;28;20464;-76
2020/12/21 01:01:36;;;;;;;34.00;28.10;;;;;;;;;;4578121;28;20446;-76
2020/12/21 01:03:53;;;;;;;33.90;25.70;;;;;;;;;;4576424;28;20261;-78
2020/12/21 01:06:09;;;;;;;33.83;25.10;;;;;;;;;;4577529;28;20518;-78
2020/12/21 01:08:25;;;;;;;36.00;26.40;;;;;;;;;;4576115;28;20511;-76
2020/12/21 01:10:41;;;;;;;34.07;25.67;;;;;;;;;;4576361;28;20524;-79
2020/12/21 01:12:56;;;;;;;32.43;25.10;;;;;;;;;;4577415;28;20527;-74
2020/12/21 01:15:12;;;;;;;32.93;25.60;;;;;;;;;;4577794;28;20516;-77
2020/12/21 01:17:32;;;;;;;34.53;26.40;;;8.00;73.20;;;;;;4577697;28;20943;-77
2020/12/21 01:19:49;;;;;;;35.67;26.87;;;;;;;;;;4577921;28;20433;-75
2020/12/21 01:22:06;;;;;;;38.40;28.03;;;;;;;;;;4577417;28;20536;-75
2020/12/21 01:24:22;;;;;;;38.37;30.63;;;;;;;;;;4577543;28;20850;-74
2020/12/21 01:26:38;;;;;;;34.53;28.00;;;;;;;;;;4577855;28;20433;-77
2020/12/21 01:28:54;;;;;;;36.87;30.10;;;7.00;78.40;;;;;;4577630;28;20472;-75
2020/12/21 01:31:10;;;;;;;36.13;28.83;;;;;;;;;;4577960;28;20445;-76
2020/12/21 01:33:27;;;;;;;38.00;30.60;;;;;;;;;;4576772;28;20516;-77
2020/12/21 01:35:46;;;;;;;41.57;31.50;;;;;;;;;;4577858;28;20445;-75
2020/12/21 01:38:02;;;;;;;44.37;30.90;;;;;;;;;;4575411;28;20456;-75
2020/12/21 01:40:17;;;;;;;40.87;30.93;;;8.80;80.70;;;;;;4577742;28;20540;-76
2020/12/21 01:42:33;;;;;;;40.47;29.67;;;;;;;;;;4576626;28;20441;-76
2020/12/21 01:44:49;;;;;;;40.67;30.53;;;;;;;;;;4577698;28;20452;-76
2020/12/21 01:47:05;;;;;;;41.33;31.03;;;;;;;;;;4575237;28;21005;-76
2020/12/21 01:49:22;;;;;;;41.93;30.77;;;7.90;74.50;;;;;;4577622;28;20533;-75
2020/12/21 01:51:41;;;;;;;40.00;31.47;;;;;;;;;;4591398;28;20502;-77
2020/12/21 01:53:57;;;;;;;39.10;29.10;;;;;;;;;;4583015;28;20853;-76
2020/12/21 01:56:15;;;;;;;43.17;32.77;;;7.20;74.00;;;;;;4594767;28;20440;-75
2020/12/21 01:58:31;;;;;;;37.93;29.53;;;;;;;;;;4595259;28;20464;-76
2020/12/21 02:00:47;;;;;;;39.17;29.77;;;;;;;;;;4594647;28;20791;-75
2020/12/21 02:03:08;;;;;;;37.07;28.00;;;8.20;73.90;;;;;;4594611;28;20527;-76
2020/12/21 02:05:26;;;;;;;39.60;29.93;;;;;;;;;;4594930;28;20488;-75
2020/12/21 02:07:42;;;;;;;38.60;29.00;;;;;;;;;;4594908;28;21499;-75
2020/12/21 02:09:57;;;;;;;37.83;29.93;;;;;;;;;;4594972;28;20448;-75
2020/12/21 02:12:13;;;;;;;36.93;29.20;;;;;;;;;;4594733;28;20467;-75
2020/12/21 02:14:30;;;;;;;37.50;28.47;;;;;;;;;;4594953;28;20574;-75
2020/12/21 02:16:46;;;;;;;36.37;28.43;;;;;;;;;;4594237;28;20830;-75
2020/12/21 02:19:02;;;;;;;36.47;27.30;;;;;;;;;;4594959;28;20456;-76
2020/12/21 02:21:18;;;;;;;34.83;28.87;;;7.40;80.20;;;;;;4594133;28;21021;-76
2020/12/21 02:23:34;;;;;;;38.67;29.20;;;;;;;;;;4595179;28;20897;-76
2020/12/21 02:25:49;;;;;;;41.37;30.47;;;;;;;;;;4578359;28;20811;-75
2020/12/21 02:28:05;;;;;;;39.00;28.50;;;;;;;;;;4585276;28;20561;-75
2020/12/21 02:30:21;;;;;;;37.47;28.23;;;;;;;;;;4584243;28;20850;-76
2020/12/21 02:32:37;;;;;;;38.43;28.73;;;7.40;79.40;;;;;;4577141;28;20799;-75
2020/12/21 02:34:53;;;;;;;43.30;28.43;;;;;;;;;;4575869;28;20595;-75
2020/12/21 02:37:09;;;;;;;38.10;28.77;;;7.90;74.50;;;;;;4576607;28;20453;-74
2020/12/21 02:39:25;;;;;;;39.70;30.67;;;;;;;;;;4574612;28;20461;-74
2020/12/21 02:41:40;;;;;;;38.80;30.27;;;;;;;;;;4576820;28;20536;-75
2020/12/21 02:43:56;;;;;;;40.17;29.93;;;;;;;;;;4574788;28;20448;-75
2020/12/21 02:46:12;;;;;;;38.83;29.47;;;;;;;;;;4576687;28;20452;-75
2020/12/21 02:48:28;;;;;;;38.57;30.70;;;;;;;;;;4576133;28;20476;-74
2020/12/21 02:50:44;;;;;;;39.93;30.03;;;;;;;;;;4576269;28;20858;-76
2020/12/21 02:53:01;;;;;;;36.20;29.17;;;;;;;;;;4576309;28;20958;-75
2020/12/21 02:55:17;;;;;;;38.87;28.10;;;;;;;;;;4576157;28;20441;-75
2020/12/21 02:57:32;;;;;;;38.33;29.27;;;;;;;;;;4574770;28;20499;-75
2020/12/21 02:59:48;;;;;;;37.67;28.77;;;;;;;;;;4575623;28;20465;-76
2020/12/21 03:02:04;;;;;;;40.07;29.83;;;7.60;80.00;;;;;;4576420;28;20524;-75
2020/12/21 03:04:20;;;;;;;38.70;28.17;;;;;;;;;;4575403;28;20491;-75
2020/12/21 03:06:35;;;;;;;37.20;28.03;;;;;;;;;;4576033;28;20455;-75
2020/12/21 03:08:52;;;;;;;35.13;27.13;;;6.80;79.20;;;;;;4575690;28;20437;-75
2020/12/21 03:11:09;;;;;;;35.80;26.27;;;7.80;79.80;;;;;;4576150;28;20495;-75
2020/12/21 03:13:25;;;;;;;37.37;28.30;;;7.70;76.80;;;;;;4574672;28;20495;-76
2020/12/21 03:15:40;;;;;;;37.03;26.93;;;;;;;;;;4576542;28;20800;-75
2020/12/21 03:17:56;;;;;;;37.20;28.00;;;;;;;;;;4575319;28;20963;-75
2020/12/21 03:20:12;;;;;;;33.80;26.73;;;;;;;;;;4576489;28;20909;-75
2020/12/21 03:22:28;;;;;;;34.47;27.20;;;;;;;;;;4574915;28;20978;-75
2020/12/21 03:24:46;;;;;;;36.87;27.70;;;;;;;;;;4575944;28;20864;-75
2020/12/21 03:27:02;;;;;;;37.13;28.60;;;;;;;;;;4575204;28;20955;-75
2020/12/21 03:29:18;;;;;;;37.07;27.70;;;;;;;;;;4575718;28;20461;-76
2020/12/21 03:31:34;;;;;;;38.70;30.37;;;;;;;;;;4575094;28;20499;-76
2020/12/21 03:33:50;;;;;;;39.53;28.80;;;;;;;;;;4575535;28;20560;-75
2020/12/21 03:36:05;;;;;;;39.33;29.43;;;;;;;;;;4575410;28;20449;-75
2020/12/21 03:38:21;;;;;;;39.80;29.83;;;;;;;;;;4575373;28;20452;-76
2020/12/21 03:40:38;;;;;;;40.43;29.80;;;;;;;;;;4575523;28;20437;-75
2020/12/21 03:42:54;;;;;;;37.33;29.60;;;;;;;;;;4573967;28;21026;-77
2020/12/21 03:45:09;;;;;;;36.80;28.93;;;7.90;80.10;;;;;;4573809;28;20524;-77
2020/12/21 03:47:27;;;;;;;39.50;28.97;;;;;;;;;;4575240;28;20440;-76
2020/12/21 03:49:43;;;;;;;39.17;29.30;;;;;;;;;;4575368;28;20927;-76
2020/12/21 03:51:59;;;;;;;39.53;30.63;;;7.30;79.70;;;;;;4573536;28;20523;-77
2020/12/21 03:54:15;;;;;;;37.90;28.50;;;;;;;;;;4573994;28;20491;-76
2020/12/21 03:56:31;;;;;;;39.70;29.77;;;;;;;;;;4575013;28;20955;-75
2020/12/21 03:58:47;;;;;;;39.17;29.53;;;;;;;;;;4575456;28;20905;-76
2020/12/21 04:01:04;;;;;;;39.60;29.57;;;8.80;80.70;;;;;;4574642;28;20433;-76
2020/12/21 04:03:20;;;;;;;43.20;31.83;;;;;;;;;;4558141;28;20446;-75
2020/12/21 04:05:37;;;;;;;39.57;29.53;;;;;;;;;;4574550;28;20860;-75
2020/12/21 04:07:55;;;;;;;39.17;29.67;;;;;;;;;;4576068;28;20503;-75
2020/12/21 04:10:11;;;;;;;40.63;30.77;;;;;;;;;;4574477;28;20441;-74
2020/12/21 04:12:28;;;;;;;39.90;29.00;;;;;;;;;;4575425;28;20536;-74
2020/12/21 04:14:44;;;;;;;37.03;29.00;;;;;;;;;;4574525;28;20512;-75
2020/12/21 04:17:00;;;;;;;38.87;28.53;;;;;;;;;;4575187;28;20536;-75
2020/12/21 04:19:17;;;;;;;41.30;30.57;;;;;;;;;;4574844;28;20445;-75
2020/12/21 04:21:35;;;;;;;40.20;30.37;;;;;;;;;;4575266;28;20990;-75
2020/12/21 04:23:51;;;;;;;39.90;30.33;;;;;;;;;;4573745;28;20911;-75
2020/12/21 04:26:07;;;;;;;38.07;29.70;;;;;;;;;;4578312;28;20457;-77
2020/12/21 04:28:23;;;;;;;40.43;31.67;;;;;;;;;;4578350;28;20814;-76
2020/12/21 04:30:39;;;;;;;39.13;29.83;;;;;;;;;;4578407;28;20539;-76
2020/12/21 04:32:57;;;;;;;42.57;29.87;;;;;;;;;;4578523;28;20448;-75
2020/12/21 04:35:13;;;;;;;39.87;30.90;;;;;;;;;;4576949;28;20479;-76
2020/12/21 04:37:30;;;;;;;40.33;30.97;;;;;;;;;;4578653;28;20469;-76
2020/12/21 04:39:46;;;;;;;41.10;31.07;;;;;;;;;;4577874;28;20509;-77
2020/12/21 04:42:01;;;;;;;40.50;31.47;;;8.10;80.20;;;;;;4577216;28;20472;-75
2020/12/21 04:44:18;;;;;;;41.23;30.93;;;;;;;;;;4577856;28;20468;-77
2020/12/21 04:46:34;;;;;;;42.77;31.63;;;8.20;80.70;;;;;;4578916;28;20447;-75
2020/12/21 04:48:50;;;;;;;40.40;30.50;;;;;;;;;;4577614;28;20448;-76
2020/12/21 04:51:06;;;;;;;41.30;29.90;;;;;;;;;;4577455;28;20531;-77
2020/12/21 04:53:22;;;;;;;40.87;29.70;;;8.30;80.80;;;;;;4577627;28;20441;-77
2020/12/21 04:55:39;;;;;;;42.33;31.27;;;;;;;;;;4578487;28;21100;-75
2020/12/21 04:57:55;;;;;;;43.87;31.37;;;;;;;;;;4577425;28;20511;-76
2020/12/21 05:00:12;;;;;;;41.17;31.07;;;;;;;;;;4578217;28;20465;-76
2020/12/21 05:02:28;;;;;;;43.50;31.20;;;;;;;;;;4581788;28;20455;-76
2020/12/21 05:04:52;;;;;;;39.87;30.60;;;8.30;74.90;;;;;;4584700;28;20877;-75
2020/12/21 05:07:07;;;;;;;39.27;30.63;;;;;;;;;;4577574;28;20807;-77
2020/12/21 05:09:24;;;;;;;42.47;31.77;;;8.30;75.00;;;;;;4577906;28;20448;-77
2020/12/21 05:11:40;;;;;;;41.77;30.10;;;;;;;;;;4577839;28;20897;-75
2020/12/21 05:14:05;;;;;;;45.50;33.33;;;7.30;74.90;;;;;;4577607;28;20484;-76
2020/12/21 05:16:25;;;;;;;42.50;32.33;;;7.60;74.90;;;;;;4577906;28;20433;-76
2020/12/21 05:18:43;;;;;;;40.83;31.97;;;;;;;;;;4577377;28;20433;-76
2020/12/21 05:21:01;;;;;;;40.30;31.53;;;8.80;81.00;;;;;;4577687;28;20447;-75
2020/12/21 05:23:18;;;;;;;43.37;31.10;;;;;;;;;;4577057;28;20461;-77
2020/12/21 05:25:33;;;;;;;42.03;31.77;;;;;;;;;;4576443;28;20452;-76
2020/12/21 05:27:49;;;;;;;41.37;29.97;;;;;;;;;;4577109;28;20841;-76
2020/12/21 05:30:05;;;;;;;43.70;32.70;;;8.40;75.60;;;;;;4577999;28;20467;-75
2020/12/21 05:32:22;;;;;;;44.07;32.20;;;;;;;;;;4576794;28;21002;-76
2020/12/21 05:34:37;;;;;;;40.90;31.20;;;;;;;;;;4577916;28;20832;-77
2020/12/21 05:36:54;;;;;;;45.23;32.70;;;;;;;;;;4574806;28;20940;-77
2020/12/21 05:39:10;;;;;;;40.70;32.03;;;;;;;;;;4578018;28;20943;-77
2020/12/21 05:41:25;;;;;;;42.57;31.50;;;;;;;;;;4575475;28;20441;-76
2020/12/21 05:43:41;;;;;;;43.73;31.77;;;;;;;;;;4577487;28;20433;-75
2020/12/21 05:46:07;;;;;;;40.90;31.10;;;;;;;;;;4576896;28;20810;-75
2020/12/21 05:48:24;;;;;;;43.30;31.93;;;7.90;75.20;;;;;;4576123;28;20450;-74
2020/12/21 05:50:42;;;;;;;40.97;31.53;;;;;;;;;;4576801;28;20967;-75
2020/12/21 05:52:59;;;;;;;40.87;31.37;;;;;;;;;;4576918;28;20448;-77
2020/12/21 05:55:15;;;;;;;43.47;32.20;;;;;;;;;;4577603;28;20478;-76
2020/12/21 05:57:32;;;;;;;45.33;33.67;;;;;;;;;;4576660;28;20448;-76
2020/12/21 05:59:48;;;;;;;49.03;34.47;;;8.20;75.20;;;;;;4577035;28;20884;-75
2020/12/21 06:02:04;;;;;;;44.83;33.07;;;;;;;;;;4576695;28;20959;-76
2020/12/21 06:04:37;;;;;;;46.63;34.47;;;7.80;75.10;;;;;;4577443;28;20810;-75
2020/12/21 06:06:58;;;;;;;43.90;33.67;;;8.20;75.30;;;;;;4576368;28;20425;-76
2020/12/21 06:09:15;;;;;;;43.10;32.90;;;;;;;;;;4577379;28;20433;-76
2020/12/21 06:11:32;;;;;;;42.50;31.73;;;;;;;;;;4576086;28;20445;-77
2020/12/21 06:14:06;;;;;;;45.63;34.03;;;8.20;75.30;;;;;;4577338;28;20548;-76
2020/12/21 06:16:22;;;;;;;42.77;31.33;;;9.40;81.40;;;;;;4576390;28;20441;-75
2020/12/21 06:18:38;;;;;;;44.97;32.47;;;;;;;;;;4576955;28;20451;-74
2020/12/21 06:20:54;;;;;;;42.33;32.00;;;;;;;;;;4576168;28;20812;-76
2020/12/21 06:23:10;;;;;;;43.13;32.87;;;8.40;80.90;;;;;;4576549;28;20919;-76
2020/12/21 06:25:25;;;;;;;44.57;32.83;;;;;;;;;;4576459;28;20453;-76
2020/12/21 06:27:42;;;;;;;47.57;31.87;;;7.60;74.80;;;;;;4576143;28;20452;-76
2020/12/21 06:29:59;;;;;;;43.00;32.00;;;;;;;;;;4576586;28;20580;-75
2020/12/21 06:32:15;;;;;;;45.47;32.47;;;;;;;;;;4576506;28;20453;-76
2020/12/21 06:34:33;;;;;;;44.53;32.10;;;8.00;74.60;;;;;;4576409;28;20507;-76
2020/12/21 06:37:08;;;;;;;42.83;32.53;;;8.10;74.80;;;;;;4575770;28;20515;-76
2020/12/21 06:39:25;;;;;;;42.30;31.87;;;;;;;;;;4577056;28;20796;-75
2020/12/21 06:41:50;;;;;;;44.27;33.63;;;;;;;;;;4574216;28;20564;-76
2020/12/21 06:44:06;;;;;;;48.50;32.77;;;7.80;80.10;;;;;;4575336;28;20499;-76
2020/12/21 06:46:23;;;;;;;44.27;32.40;;;;;;;;;;4575663;28;20908;-75
2020/12/21 06:48:38;;;;;;;53.23;31.60;;;;;;;;;;4573839;28;20532;-76
2020/12/21 06:50:54;;;;;;;45.83;32.93;;;;;;;;;;4574020;28;20842;-75
2020/12/21 06:53:11;;;;;;;44.83;32.57;;;;;;;;;;4575110;28;20440;-75
2020/12/21 06:55:33;;;;;;;43.30;31.23;;;;;;;;;;4573972;28;20560;-75
2020/12/21 06:57:51;;;;;;;42.93;31.50;;;8.20;74.80;;;;;;4575647;28;20787;-74
2020/12/21 07:00:07;;;;;;;40.50;29.87;;;;;;;;;;4574388;28;20469;-77
2020/12/21 07:02:23;;;;;;;40.80;29.73;;;;;;;;;;4575722;28;20441;-77
2020/12/21 07:04:39;;;;;;;39.60;29.87;;;;;;;;;;4575774;28;21041;-76
2020/12/21 07:06:54;;;;;;;44.97;30.40;;;;;;;;;;4573880;28;20453;-75
2020/12/21 07:09:12;;;;;;;40.40;30.10;;;7.30;74.00;;;;;;4575401;28;20464;-76
2020/12/21 07:11:28;;;;;;;44.90;30.23;;;;;;;;;;4573862;28;20440;-75
2020/12/21 07:13:44;;;;;;;43.43;28.23;;;;;;;;;;4575515;28;20444;-75
2020/12/21 07:16:01;;;;;;;42.97;29.83;;;7.90;79.20;;;;;;4574022;28;20583;-75
2020/12/21 07:18:16;;;;;;;42.20;29.43;;;;;;;;;;4575625;28;20437;-76
2020/12/21 07:20:32;;;;;;;36.03;26.90;;;;;;;;;;4574754;28;20449;-76
2020/12/21 07:22:48;;;;;;;37.30;27.37;;;;;;;;;;4575596;28;20467;-76
2020/12/21 07:25:04;;;;;;;37.40;26.83;;;;;;;;;;4557138;28;20485;-76
2020/12/21 07:27:20;;;;;;;37.83;27.63;;;;;;;;;;4575312;28;20464;-76
2020/12/21 07:29:36;;;;;;;37.87;27.27;;;;;;;;;;4574168;28;20476;-75
2020/12/21 07:31:53;;;;;;;37.50;28.33;;;;;;;;;;4575652;28;21133;-75
2020/12/21 07:34:11;;;;;;;38.77;28.17;;;;;;;;;;4574751;28;20531;-76
2020/12/21 07:36:27;;;;;;;37.97;26.77;;;;;;;;;;4574041;28;20449;-76
2020/12/21 07:38:43;;;;;;;38.00;27.57;;;;;;;;;;4573481;28;20539;-75
2020/12/21 07:41:00;;;;;;;36.83;26.83;;;;;;;;;;4575260;28;20500;-76
2020/12/21 07:43:21;;;;;;;35.47;26.97;;;7.70;73.30;;;;;;4574824;28;20814;-75
2020/12/21 07:45:38;;;;;;;35.97;26.37;;;;;;;;;;4575299;28;20457;-75
2020/12/21 07:47:54;;;;;;;37.73;27.57;;;;;;;;;;4575009;28;20591;-75
2020/12/21 07:50:10;;;;;;;36.27;28.00;;;;;;;;;;4574021;28;20448;-76
2020/12/21 07:52:27;;;;;;;40.90;30.03;;;;;;;;;;4574672;28;20492;-75
2020/12/21 07:54:44;;;;;;;38.17;28.70;;;8.50;79.30;;;;;;4574459;28;20480;-76
2020/12/21 07:57:00;;;;;;;37.70;28.57;;;6.80;77.80;;;;;;4574724;28;20488;-74
2020/12/21 07:59:18;;;;;;;40.70;28.50;;;;;;;;;;4573769;28;20421;-75
2020/12/21 08:01:34;;;;;;;37.13;28.30;;;;;;;;;;4574709;28;20448;-75
2020/12/21 08:03:51;;;;;;;38.77;27.77;;;;;;;;;;4574204;28;20956;-75
2020/12/21 08:06:08;;;;;;;37.63;28.67;;;;;;;;;;4575212;28;20452;-76
2020/12/21 08:08:26;;;;;;;35.97;26.80;;;;;;;;;;4572549;28;20452;-77
2020/12/21 08:10:42;;;;;;;37.70;27.37;;;;;;;;;;4575247;28;20499;-77
2020/12/21 08:12:59;;;;;;;38.73;28.17;;;;;;;;;;4573928;28;20903;-76
2020/12/21 08:15:15;;;;;;;36.13;27.00;;;;;;;;;;4574686;28;20487;-76
2020/12/21 08:17:31;;;;;;;36.33;27.63;;;;;;;;;;4573658;28;20460;-76
2020/12/21 08:19:51;;;;;;;35.67;25.47;;;;;;;;;;4574865;28;20441;-76
2020/12/21 08:22:07;;;;;;;28.77;20.77;;;;;;;;;;4577260;28;20480;-78
2020/12/21 08:24:22;;;;;;;28.53;21.73;;;;;;;;;;4576494;28;20508;-77
2020/12/21 08:26:38;;;;;;;29.37;21.63;;;8.80;78.80;;;;;;4574651;28;20511;-77
2020/12/21 08:28:57;;;;;;;25.37;20.13;;;;;;;;;;4584620;28;20556;-77
2020/12/21 08:31:15;;;;;;;24.97;18.93;;;;;;;;;;4574815;28;20495;-77
2020/12/21 08:33:31;;;;;;;25.93;19.03;;;;;;;;;;4574463;28;20532;-75
2020/12/21 08:35:47;;;;;;;25.43;19.17;;;;;;;;;;4574701;28;20609;-77
2020/12/21 08:38:21;;;;;;;26.10;18.60;;;;;;;;;;4574224;28;20429;-78
2020/12/21 08:40:37;;;;;;;25.27;18.37;;;;;;;;;;4573465;28;20676;-76
2020/12/21 08:42:53;;;;;;;25.10;19.40;;;;;;;;;;4573729;28;20464;-74
2020/12/21 08:45:10;;;;;;;25.30;19.67;;;8.20;71.90;;;;;;4574746;28;20527;-75
2020/12/21 08:47:26;;;;;;;26.70;20.00;;;;;;;;;;4573841;28;20491;-76
2020/12/21 08:49:42;;;;;;;27.80;19.77;;;;;;;;;;4575009;28;20968;-76
2020/12/21 08:52:00;;;;;;;31.53;21.30;;;;;;;;;;4573681;28;20496;-75
2020/12/21 08:54:16;;;;;;;29.97;20.37;;;;;;;;;;4574513;28;20448;-75
2020/12/21 08:56:32;;;;;;;25.57;20.20;;;;;;;;;;4573768;28;20457;-77
2020/12/21 08:58:47;;;;;;;24.47;18.20;;;;;;;;;;4574190;28;20855;-77
2020/12/21 09:01:05;;;;;;;23.63;18.27;;;;;;;;;;4573061;28;20496;-75
2020/12/21 09:03:21;;;;;;;27.33;19.27;;;;;;;;;;4574324;28;20437;-75
2020/12/21 09:05:37;;;;;;;26.07;19.17;;;;;;;;;;4573588;28;20472;-76
2020/12/21 09:07:53;;;;;;;27.23;20.37;;;;;;;;;;4572614;28;20567;-76
2020/12/21 09:10:09;;;;;;;26.57;20.00;;;;;;;;;;4572438;28;20445;-77
2020/12/21 09:12:25;;;;;;;29.87;21.93;;;;;;;;;;4576194;28;20563;-76
2020/12/21 09:14:41;;;;;;;26.80;20.63;;;;;;;;;;4577300;28;20531;-77
2020/12/21 09:16:58;;;;;;;26.07;20.93;;;;;;;;;;4577230;28;20492;-77
2020/12/21 09:19:14;;;;;;;27.23;21.33;;;;;;;;;;4577712;28;20487;-76
2020/12/21 09:21:31;;;;;;;26.03;19.60;;;;;;;;;;4576882;28;20823;-77
2020/12/21 09:23:47;;;;;;;27.60;20.20;;;8.70;76.80;;;;;;4576183;28;20444;-76
2020/12/21 09:26:04;;;;;;;25.93;20.30;;;;;;;;;;4576630;28;20452;-75
2020/12/21 09:28:20;;;;;;;24.47;19.17;;;;;;;;;;4577421;28;20445;-75
2020/12/21 09:30:36;;;;;;;28.17;20.07;;;;;;;;;;4575438;28;20552;-75
2020/12/21 09:32:52;;;;;;;25.70;20.97;;;;;;;;;;4577612;28;20437;-76
2020/12/21 09:35:08;;;;;;;28.83;22.03;;;;;;;;;;4576584;28;20841;-75
2020/12/21 09:37:24;;;;;;;28.37;21.50;;;;;;;;;;4577745;28;20433;-75
2020/12/21 09:39:40;;;;;;;27.63;20.83;;;;;;;;;;4575936;28;20491;-75
2020/12/21 09:41:56;;;;;;;25.47;20.27;;;;;;;;;;4577400;28;20896;-76
2020/12/21 09:44:12;;;;;;;28.90;20.57;;;;;;;;;;4576399;28;20441;-75
2020/12/21 09:46:28;;;;;;;26.83;20.67;;;;;;;;;;4575879;28;20441;-75
2020/12/21 09:48:44;;;;;;;31.77;22.80;;;;;;;;;;4573698;28;20826;-75
2020/12/21 09:51:02;;;;;;;30.77;21.70;;;;;;;;;;4576055;28;20778;-76
2020/12/21 09:53:20;;;;;;;30.77;22.83;;;;;;;;;;4574107;28;20904;-76
2020/12/21 09:55:36;;;;;;;28.97;21.63;;;;;;;;;;4576646;28;20481;-75
2020/12/21 09:57:52;;;;;;;29.57;22.67;;;;;;;;;;4576826;28;20447;-76
2020/12/21 10:00:08;;;;;;;31.47;22.67;;;;;;;;;;4576258;28;20479;-76
2020/12/21 10:02:26;;;;;;;32.73;22.50;;;;;;;;;;4576107;28;20527;-76
2020/12/21 10:04:45;;;;;;;28.90;22.23;;;7.40;69.30;;;;;;4574324;28;20456;-76
2020/12/21 10:07:01;;;;;;;28.30;22.00;;;;;;;;;;4576406;28;20425;-77
2020/12/21 10:09:19;;;;;;;26.70;21.70;;;;;;;;;;4576155;28;20444;-76
2020/12/21 10:11:36;;;;;;;29.97;22.37;;;;;;;;;;4576973;28;20503;-77
2020/12/21 10:13:51;;;;;;;29.27;22.23;;;8.40;75.30;;;;;;4574775;28;20471;-77
2020/12/21 10:16:07;;;;;;;30.67;22.23;;;;;;;;;;4575263;28;20477;-76
2020/12/21 10:18:23;;;;;;;31.73;22.07;;;;;;;;;;4558228;28;20488;-77
2020/12/21 10:20:40;;;;;;;34.20;22.87;;;;;;;;;;4575039;28;20441;-77
2020/12/21 10:22:56;;;;;;;28.87;21.80;;;;;;;;;;4575181;28;20552;-76
2020/12/21 10:25:12;;;;;;;29.03;21.00;;;;;;;;;;4582807;28;20471;-75
2020/12/21 10:27:29;;;;;;;28.73;20.27;;;;;;;;;;4591988;28;20452;-77
2020/12/21 10:29:44;;;;;;;26.10;21.00;;;;;;;;;;4588430;28;20548;-76
2020/12/21 10:32:00;;;;;;;26.97;19.80;;;;;;;;;;4575658;28;20476;-76
2020/12/21 10:34:16;;;;;;;29.03;22.17;;;;;;;;;;4580810;28;20440;-77
2020/12/21 10:36:33;;;;;;;26.67;20.30;;;;;;;;;;4593241;28;21259;-75
2020/12/21 10:38:52;;;;;;;27.33;20.77;;;;;;;;;;4593921;28;20585;-75
2020/12/21 10:41:08;;;;;;;26.50;20.57;;;;;;;;;;4592182;28;20926;-75
2020/12/21 10:43:24;;;;;;;29.23;20.10;;;;;;;;;;4593830;28;20447;-75
2020/12/21 10:45:42;;;;;;;31.73;20.00;;;;;;;;;;4591717;28;20456;-74
2020/12/21 10:47:58;;;;;;;27.73;19.93;;;;;;;;;;4592258;28;20424;-77
2020/12/21 10:50:13;;;;;;;29.43;19.93;;;;;;;;;;4593573;28;20853;-76
2020/12/21 10:52:31;;;;;;;25.93;20.90;;;;;;;;;;4593245;28;20452;-78
2020/12/21 10:54:47;;;;;;;28.37;19.07;;;;;;;;;;4593580;28;20499;-77
2020/12/21 10:57:05;;;;;;;26.17;19.40;;;;;;;;;;4593321;28;20437;-75
2020/12/21 10:59:21;;;;;;;24.90;19.17;;;;;;;;;;4593526;28;20440;-77
2020/12/21 11:01:36;;;;;;;24.63;19.60;;;;;;;;;;4592478;28;20463;-76
2020/12/21 11:03:52;;;;;;;28.57;20.07;;;;;;;;;;4592612;28;20523;-76
2020/12/21 11:06:08;;;;;;;26.30;19.93;;;;;;;;;;4592600;28;20547;-76
2020/12/21 11:08:24;;;;;;;25.13;20.93;;;;;;;;;;4592436;28;21004;-77
2020/12/21 11:10:40;;;;;;;27.47;20.37;;;;;;;;;;4590683;28;21008;-77
2020/12/21 11:12:56;;;;;;;30.70;20.83;;;;;;;;;;4591353;28;20448;-78
2020/12/21 11:15:12;;;;;;;26.90;20.87;;;;;;;;;;4591665;28;20464;-77
2020/12/21 11:17:28;;;;;;;28.33;20.23;;;;;;;;;;4592328;28;20547;-78
2020/12/21 11:19:44;;;;;;;25.47;19.67;;;;;;;;;;4583344;28;20459;-77
2020/12/21 11:22:00;;;;;;;28.13;20.37;;;;;;;;;;4581142;28;20495;-76
2020/12/21 11:24:19;;;;;;;23.83;19.50;;;;;;;;;;4592729;28;20447;-77
2020/12/21 11:26:35;;;;;;;25.80;19.70;;;;;;;;;;4593630;28;20804;-79
2020/12/21 11:28:51;;;;;;;25.47;20.40;;;;;;;;;;4586525;28;20441;-76
2020/12/21 11:31:08;;;;;;;23.80;20.07;;;;;;;;;;4580165;28;20531;-79
2020/12/21 11:33:24;;;;;;;25.57;18.83;;;;;;;;;;4585062;28;20509;-79
2020/12/21 11:35:40;;;;;;;26.57;19.00;;;;;;;;;;4574718;28;20879;-74
2020/12/21 11:37:56;;;;;;;23.83;18.60;;;;;;;;;;4574486;28;20853;-75
2020/12/21 11:40:14;;;;;;;25.83;19.30;;;;;;;;;;4573772;28;20888;-74
2020/12/21 11:42:30;;;;;;;25.57;19.77;;;;;;;;;;4574567;28;20441;-76
2020/12/21 11:44:46;;;;;;;24.23;19.27;;;;;;;;;;4574439;28;20480;-76
2020/12/21 11:47:09;;;;;;;22.20;18.10;;;;;;;;;;4575203;28;20864;-83
2020/12/21 11:49:26;;;;;;;23.57;18.63;;;;;;;;;;4573702;28;20488;-81
2020/12/21 11:51:42;;;;;;;23.73;17.97;;;;;;;;;;4575024;28;20981;-82
2020/12/21 11:53:58;;;;;;;22.10;17.17;;;;;;;;;;4574390;28;20494;-85
2020/12/21 11:56:17;;;;;;;23.73;18.17;;;;;;;;;;4590369;28;20567;-82
2020/12/21 11:58:33;;;;;;;23.33;17.80;;;;;;;;;;4573818;28;20540;-82
2020/12/21 12:00:50;;;;;;;22.97;18.17;;;;;;;;;;4557905;28;20474;-82
2020/12/21 12:03:07;;;;;;;24.63;18.20;;;;;;;;;;4572291;28;20448;-81
2020/12/21 12:05:23;;;;;;;27.80;19.33;;;;;;;;;;4574033;28;20854;-83
2020/12/21 12:07:40;;;;;;;22.83;18.03;;;;;;;;;;4572623;28;20519;-78
2020/12/21 12:09:56;;;;;;;25.70;19.00;;;;;;;;;;4573047;28;20444;-78
2020/12/21 12:12:14;;;;;;;23.77;18.43;;;;;;;;;;4571912;28;20475;-78
2020/12/21 12:14:31;;;;;;;22.50;18.40;;;;;;;;;;4574471;28;20444;-81
2020/12/21 12:16:47;;;;;;;24.23;19.37;;;;;;;;;;4572145;28;20469;-77
2020/12/21 12:19:03;;;;;;;23.50;18.07;;;;;;;;;;4573422;28;20440;-78
2020/12/21 12:21:22;;;;;;;23.20;18.00;;;7.90;66.10;;;;;;4573233;28;21247;-80
2020/12/21 12:23:38;;;;;;;21.90;16.73;;;;;;;;;;4571369;28;20495;-76
2020/12/21 12:25:54;;;;;;;22.73;18.53;;;;;;;;;;4573130;28;20533;-78
2020/12/21 12:28:11;;;;;;;21.13;17.60;;;;;;;;;;4572732;28;20441;-79
2020/12/21 12:30:27;;;;;;;20.47;15.97;;;;;;;;;;4575396;28;21027;-77
2020/12/21 12:32:43;;;;;;;23.87;18.47;;;;;;;;;;4579120;28;20515;-80
2020/12/21 12:34:59;;;;;;;24.23;18.57;;;;;;;;;;4582097;28;21201;-79
2020/12/21 12:37:15;;;;;;;21.87;17.43;;;;;;;;;;4567932;28;20434;-81
2020/12/21 12:39:30;;;;;;;23.00;17.93;;;;;;;;;;4584366;28;20437;-79
2020/12/21 12:41:50;;;;;;;21.50;17.53;;;;;;;;;;4584916;28;21001;-81
2020/12/21 12:44:07;;;;;;;22.30;17.67;;;9.50;72.60;;;;;;4583424;28;20498;-78
2020/12/21 12:46:24;;;;;;;23.53;17.33;;;;;;;;;;4586879;28;20498;-79
2020/12/21 12:48:40;;;;;;;21.57;17.20;;;;;;;;;;4596056;28;20454;-76
2020/12/21 12:50:56;;;;;;;21.23;16.83;;;;;;;;;;4591320;28;20445;-77
2020/12/21 12:53:15;;;;;;;20.17;16.13;;;;;;;;;;4588108;28;20436;-76
2020/12/21 12:55:31;;;;;;;22.13;17.00;;;;;;;;;;4576688;28;20473;-77
2020/12/21 12:57:47;;;;;;;20.90;16.80;;;;;;;;;;4578059;28;20464;-76
2020/12/21 13:00:05;;;;;;;19.63;15.53;;;;;;;;;;4576602;28;20447;-77